Urb Fajardo Gdns, Puerto Rico
Current Conditions -  °F | °C
As of 7:53 AM on Wednesday 28 Jan 2015 (Local Time) from TJNR Reporting Station
Clear Clear  
Wind Chill: 74°   Ceiling: Unl
Heat Index: 74°   Visibility: 10mi
Dew Point: 71°   Wind: 0mph
Humidity: 91%   Direction: NA
Pressure: 30.04"   Gusts: NA
Location:  18.3304°N, 65.6573°W
Report Text: TJNR 281153Z AUTO 00000KT 10SM CLR 23/22 A3004 RMK AO2 SLP174 T02330217 10233 20200 53015 $
Loading
Personal Weather Stations






























Interactive Weather Map New forecast layout! Learn more

10-Day Weather Forecast

Advertisements
Track Severe Weather on mobile